sensor_id;sensor_type;location;lat;lon;timestamp;temperature;humidity
61004;DHT22;46889;37.310;13.582;2022-10-17T00:02:09;18.90;99.90
61004;DHT22;46889;37.310;13.582;2022-10-17T00:04:36;18.90;99.90
61004;DHT22;46889;37.310;13.582;2022-10-17T00:07:02;19.00;99.90
61004;DHT22;46889;37.310;13.582;2022-10-17T00:09:28;18.90;99.90
61004;DHT22;46889;37.310;13.582;2022-10-17T00:11:54;18.90;99.90
61004;DHT22;46889;37.310;13.582;2022-10-17T00:14:20;18.90;99.90
61004;DHT22;46889;37.310;13.582;2022-10-17T00:16:46;18.90;99.90
61004;DHT22;46889;37.310;13.582;2022-10-17T00:19:12;18.80;99.90
61004;DHT22;46889;37.310;13.582;2022-10-17T00:21:38;18.80;99.90
61004;DHT22;46889;37.310;13.582;2022-10-17T00:24:05;18.80;99.90
61004;DHT22;46889;37.310;13.582;2022-10-17T00:26:31;18.80;99.90
61004;DHT22;46889;37.310;13.582;2022-10-17T00:28:57;18.80;99.90
61004;DHT22;46889;37.310;13.582;2022-10-17T00:31:24;18.80;99.90
61004;DHT22;46889;37.310;13.582;2022-10-17T00:33:51;18.80;99.90
61004;DHT22;46889;37.310;13.582;2022-10-17T00:36:21;18.80;99.90
61004;DHT22;46889;37.310;13.582;2022-10-17T00:38:50;18.80;99.90
61004;DHT22;46889;37.310;13.582;2022-10-17T00:41:20;18.90;99.90
61004;DHT22;46889;37.310;13.582;2022-10-17T00:46:25;18.80;99.90
61004;DHT22;46889;37.310;13.582;2022-10-17T00:48:53;18.80;99.90
61004;DHT22;46889;37.310;13.582;2022-10-17T00:51:24;18.80;99.90
61004;DHT22;46889;37.310;13.582;2022-10-17T00:53:51;18.80;99.90
61004;DHT22;46889;37.310;13.582;2022-10-17T00:56:18;18.80;99.90
61004;DHT22;46889;37.310;13.582;2022-10-17T00:58:46;18.80;99.90
61004;DHT22;46889;37.310;13.582;2022-10-17T01:01:12;18.80;99.90
61004;DHT22;46889;37.310;13.582;2022-10-17T01:03:38;18.80;99.90
61004;DHT22;46889;37.310;13.582;2022-10-17T01:06:04;18.90;99.90
61004;DHT22;46889;37.310;13.582;2022-10-17T01:08:31;18.90;99.90
61004;DHT22;46889;37.310;13.582;2022-10-17T01:16:51;18.90;99.90
61004;DHT22;46889;37.310;13.582;2022-10-17T01:25:22;18.90;99.90
61004;DHT22;46889;37.310;13.582;2022-10-17T01:30:43;18.80;99.90
61004;DHT22;46889;37.310;13.582;2022-10-17T01:35:51;18.80;99.90
61004;DHT22;46889;37.310;13.582;2022-10-17T01:38:31;18.80;99.90
61004;DHT22;46889;37.310;13.582;2022-10-17T01:44:04;18.70;99.90
61004;DHT22;46889;37.310;13.582;2022-10-17T01:46:44;18.70;99.90
61004;DHT22;46889;37.310;13.582;2022-10-17T01:49:13;18.70;99.90
61004;DHT22;46889;37.310;13.582;2022-10-17T01:51:48;18.70;99.90
61004;DHT22;46889;37.310;13.582;2022-10-17T01:54:23;18.70;99.90
61004;DHT22;46889;37.310;13.582;2022-10-17T01:56:55;18.70;99.90
61004;DHT22;46889;37.310;13.582;2022-10-17T01:59:26;18.70;99.90
61004;DHT22;46889;37.310;13.582;2022-10-17T02:01:55;18.70;99.90
61004;DHT22;46889;37.310;13.582;2022-10-17T02:04:23;18.70;99.90
61004;DHT22;46889;37.310;13.582;2022-10-17T02:06:49;18.70;99.90
61004;DHT22;46889;37.310;13.582;2022-10-17T02:09:17;18.80;99.90
61004;DHT22;46889;37.310;13.582;2022-10-17T02:20:28;18.90;99.90
61004;DHT22;46889;37.310;13.582;2022-10-17T02:23:02;18.90;99.90
61004;DHT22;46889;37.310;13.582;2022-10-17T02:25:37;18.80;99.90
61004;DHT22;46889;37.310;13.582;2022-10-17T02:28:19;18.90;99.90
61004;DHT22;46889;37.310;13.582;2022-10-17T02:31:20;18.90;99.90
61004;DHT22;46889;37.310;13.582;2022-10-17T02:34:04;18.90;99.90
61004;DHT22;46889;37.310;13.582;2022-10-17T02:36:42;18.90;99.90
61004;DHT22;46889;37.310;13.582;2022-10-17T02:39:10;18.80;99.90
61004;DHT22;46889;37.310;13.582;2022-10-17T02:41:38;18.70;99.90
61004;DHT22;46889;37.310;13.582;2022-10-17T02:44:06;18.80;99.90
61004;DHT22;46889;37.310;13.582;2022-10-17T02:46:34;18.70;99.90
61004;DHT22;46889;37.310;13.582;2022-10-17T02:49:06;18.70;99.90
61004;DHT22;46889;37.310;13.582;2022-10-17T02:51:44;18.60;99.90
61004;DHT22;46889;37.310;13.582;2022-10-17T02:56:57;18.60;99.90
61004;DHT22;46889;37.310;13.582;2022-10-17T02:59:25;18.50;99.90
61004;DHT22;46889;37.310;13.582;2022-10-17T03:01:54;18.50;99.90
61004;DHT22;46889;37.310;13.582;2022-10-17T03:04:20;18.50;99.90
61004;DHT22;46889;37.310;13.582;2022-10-17T03:06:47;18.50;99.90
61004;DHT22;46889;37.310;13.582;2022-10-17T03:09:15;18.50;99.90
61004;DHT22;46889;37.310;13.582;2022-10-17T03:11:41;18.50;99.90
61004;DHT22;46889;37.310;13.582;2022-10-17T03:14:07;18.50;99.90
61004;DHT22;46889;37.310;13.582;2022-10-17T03:16:33;18.60;99.90
61004;DHT22;46889;37.310;13.582;2022-10-17T03:18:59;18.60;99.90
61004;DHT22;46889;37.310;13.582;2022-10-17T03:21:25;18.60;99.90
61004;DHT22;46889;37.310;13.582;2022-10-17T03:23:52;18.70;99.90
61004;DHT22;46889;37.310;13.582;2022-10-17T03:26:19;18.80;99.90
61004;DHT22;46889;37.310;13.582;2022-10-17T03:28:45;18.80;99.90
61004;DHT22;46889;37.310;13.582;2022-10-17T03:31:16;18.70;99.90
61004;DHT22;46889;37.310;13.582;2022-10-17T03:33:42;18.70;99.90
61004;DHT22;46889;37.310;13.582;2022-10-17T03:36:14;18.70;99.90
61004;DHT22;46889;37.310;13.582;2022-10-17T03:38:41;18.70;99.90
61004;DHT22;46889;37.310;13.582;2022-10-17T03:41:07;18.70;99.90
61004;DHT22;46889;37.310;13.582;2022-10-17T03:43:34;18.60;99.90
61004;DHT22;46889;37.310;13.582;2022-10-17T03:46:00;18.60;99.90
61004;DHT22;46889;37.310;13.582;2022-10-17T03:48:28;18.60;99.90
61004;DHT22;46889;37.310;13.582;2022-10-17T03:50:59;18.70;99.90
61004;DHT22;46889;37.310;13.582;2022-10-17T03:53:27;18.70;99.90
61004;DHT22;46889;37.310;13.582;2022-10-17T03:55:53;18.60;99.90
61004;DHT22;46889;37.310;13.582;2022-10-17T03:58:19;18.60;99.90
61004;DHT22;46889;37.310;13.582;2022-10-17T04:00:46;18.50;99.90
61004;DHT22;46889;37.310;13.582;2022-10-17T04:03:12;18.50;99.90
61004;DHT22;46889;37.310;13.582;2022-10-17T04:05:38;18.50;99.90
61004;DHT22;46889;37.310;13.582;2022-10-17T04:08:04;18.50;99.90
61004;DHT22;46889;37.310;13.582;2022-10-17T04:10:30;18.50;99.90
61004;DHT22;46889;37.310;13.582;2022-10-17T04:12:57;18.50;99.90
61004;DHT22;46889;37.310;13.582;2022-10-17T04:15:23;18.50;99.90
61004;DHT22;46889;37.310;13.582;2022-10-17T04:17:50;18.50;99.90
61004;DHT22;46889;37.310;13.582;2022-10-17T04:20:16;18.40;99.90
61004;DHT22;46889;37.310;13.582;2022-10-17T04:22:42;18.40;99.90
61004;DHT22;46889;37.310;13.582;2022-10-17T04:25:09;18.40;99.90
61004;DHT22;46889;37.310;13.582;2022-10-17T04:27:35;18.50;99.90
61004;DHT22;46889;37.310;13.582;2022-10-17T04:30:01;18.50;99.90
61004;DHT22;46889;37.310;13.582;2022-10-17T04:32:28;18.50;99.90
61004;DHT22;46889;37.310;13.582;2022-10-17T04:34:54;18.50;99.90
61004;DHT22;46889;37.310;13.582;2022-10-17T04:37:20;18.50;99.90
61004;DHT22;46889;37.310;13.582;2022-10-17T04:39:46;18.40;99.90
61004;DHT22;46889;37.310;13.582;2022-10-17T04:42:12;18.50;99.90
61004;DHT22;46889;37.310;13.582;2022-10-17T04:44:38;18.50;99.90
61004;DHT22;46889;37.310;13.582;2022-10-17T04:47:04;18.40;99.90
61004;DHT22;46889;37.310;13.582;2022-10-17T04:49:32;18.40;99.90
61004;DHT22;46889;37.310;13.582;2022-10-17T04:51:58;18.40;99.90
61004;DHT22;46889;37.310;13.582;2022-10-17T04:54:24;18.40;99.90
61004;DHT22;46889;37.310;13.582;2022-10-17T04:56:50;18.50;99.90
61004;DHT22;46889;37.310;13.582;2022-10-17T04:59:18;18.40;99.90
61004;DHT22;46889;37.310;13.582;2022-10-17T05:01:44;18.30;99.90
61004;DHT22;46889;37.310;13.582;2022-10-17T05:04:10;18.30;99.90
61004;DHT22;46889;37.310;13.582;2022-10-17T05:06:36;18.40;99.90
61004;DHT22;46889;37.310;13.582;2022-10-17T05:09:03;18.40;99.90
61004;DHT22;46889;37.310;13.582;2022-10-17T05:11:29;18.40;99.90
61004;DHT22;46889;37.310;13.582;2022-10-17T05:13:57;18.40;99.90
61004;DHT22;46889;37.310;13.582;2022-10-17T05:16:25;18.40;99.90
61004;DHT22;46889;37.310;13.582;2022-10-17T05:18:55;18.30;99.90
61004;DHT22;46889;37.310;13.582;2022-10-17T05:21:23;18.30;99.90
61004;DHT22;46889;37.310;13.582;2022-10-17T05:23:51;18.30;99.90
61004;DHT22;46889;37.310;13.582;2022-10-17T05:26:17;18.30;99.90
61004;DHT22;46889;37.310;13.582;2022-10-17T05:28:44;18.30;99.90
61004;DHT22;46889;37.310;13.582;2022-10-17T05:31:11;18.30;99.90
61004;DHT22;46889;37.310;13.582;2022-10-17T05:33:38;18.40;99.90
61004;DHT22;46889;37.310;13.582;2022-10-17T05:36:05;18.40;99.90
61004;DHT22;46889;37.310;13.582;2022-10-17T05:38:31;18.30;99.90
61004;DHT22;46889;37.310;13.582;2022-10-17T05:40:58;18.30;99.90
61004;DHT22;46889;37.310;13.582;2022-10-17T05:43:24;18.30;99.90
61004;DHT22;46889;37.310;13.582;2022-10-17T05:45:50;18.40;99.90
61004;DHT22;46889;37.310;13.582;2022-10-17T05:48:17;18.70;99.90
61004;DHT22;46889;37.310;13.582;2022-10-17T05:50:43;18.90;99.90
61004;DHT22;46889;37.310;13.582;2022-10-17T05:53:09;19.20;99.90
61004;DHT22;46889;37.310;13.582;2022-10-17T05:55:36;19.50;99.90
61004;DHT22;46889;37.310;13.582;2022-10-17T05:58:03;19.80;99.90
61004;DHT22;46889;37.310;13.582;2022-10-17T06:00:31;20.10;99.90
61004;DHT22;46889;37.310;13.582;2022-10-17T06:03:00;20.40;99.90
61004;DHT22;46889;37.310;13.582;2022-10-17T06:05:26;20.70;99.90
61004;DHT22;46889;37.310;13.582;2022-10-17T06:07:52;21.10;99.90
61004;DHT22;46889;37.310;13.582;2022-10-17T06:10:18;21.50;99.90
61004;DHT22;46889;37.310;13.582;2022-10-17T06:12:45;22.10;99.90
61004;DHT22;46889;37.310;13.582;2022-10-17T06:15:12;22.40;99.90
61004;DHT22;46889;37.310;13.582;2022-10-17T06:17:38;22.80;99.90
61004;DHT22;46889;37.310;13.582;2022-10-17T06:20:04;23.10;99.90
61004;DHT22;46889;37.310;13.582;2022-10-17T06:22:31;23.60;99.90
61004;DHT22;46889;37.310;13.582;2022-10-17T06:24:57;24.10;99.90
61004;DHT22;46889;37.310;13.582;2022-10-17T06:27:44;24.70;99.90
61004;DHT22;46889;37.310;13.582;2022-10-17T06:30:10;24.80;99.90
61004;DHT22;46889;37.310;13.582;2022-10-17T06:32:37;24.90;99.90
61004;DHT22;46889;37.310;13.582;2022-10-17T06:35:08;24.80;99.90
61004;DHT22;46889;37.310;13.582;2022-10-17T06:37:35;25.00;99.90
61004;DHT22;46889;37.310;13.582;2022-10-17T06:40:08;25.10;99.90
61004;DHT22;46889;37.310;13.582;2022-10-17T06:42:37;25.40;99.90
61004;DHT22;46889;37.310;13.582;2022-10-17T06:45:04;26.00;99.90
61004;DHT22;46889;37.310;13.582;2022-10-17T06:47:30;26.10;99.90
61004;DHT22;46889;37.310;13.582;2022-10-17T06:50:15;25.80;99.90
61004;DHT22;46889;37.310;13.582;2022-10-17T06:52:50;26.00;99.90
61004;DHT22;46889;37.310;13.582;2022-10-17T06:55:18;26.30;99.90
61004;DHT22;46889;37.310;13.582;2022-10-17T06:57:46;26.30;99.90
61004;DHT22;46889;37.310;13.582;2022-10-17T07:00:18;26.40;99.90
61004;DHT22;46889;37.310;13.582;2022-10-17T07:02:44;26.10;99.90
61004;DHT22;46889;37.310;13.582;2022-10-17T07:05:10;25.60;99.90
61004;DHT22;46889;37.310;13.582;2022-10-17T07:07:37;25.60;99.90
61004;DHT22;46889;37.310;13.582;2022-10-17T07:10:04;25.70;99.90
61004;DHT22;46889;37.310;13.582;2022-10-17T07:12:33;25.50;99.90
61004;DHT22;46889;37.310;13.582;2022-10-17T07:15:00;25.60;99.90
61004;DHT22;46889;37.310;13.582;2022-10-17T07:17:26;26.30;99.90
61004;DHT22;46889;37.310;13.582;2022-10-17T07:19:52;26.30;99.90
61004;DHT22;46889;37.310;13.582;2022-10-17T07:22:31;26.30;99.90
61004;DHT22;46889;37.310;13.582;2022-10-17T07:24:58;25.90;99.90
61004;DHT22;46889;37.310;13.582;2022-10-17T07:27:24;25.80;99.90
61004;DHT22;46889;37.310;13.582;2022-10-17T07:29:51;25.40;99.90
61004;DHT22;46889;37.310;13.582;2022-10-17T07:32:32;25.00;99.90
61004;DHT22;46889;37.310;13.582;2022-10-17T07:34:59;24.30;99.90
61004;DHT22;46889;37.310;13.582;2022-10-17T07:37:25;24.00;99.90
61004;DHT22;46889;37.310;13.582;2022-10-17T07:39:51;24.00;99.90
61004;DHT22;46889;37.310;13.582;2022-10-17T07:42:17;24.10;99.90
61004;DHT22;46889;37.310;13.582;2022-10-17T07:44:46;24.00;99.90
61004;DHT22;46889;37.310;13.582;2022-10-17T07:47:14;23.90;99.90
61004;DHT22;46889;37.310;13.582;2022-10-17T07:49:40;23.80;99.90
61004;DHT22;46889;37.310;13.582;2022-10-17T07:52:12;23.90;99.90
61004;DHT22;46889;37.310;13.582;2022-10-17T07:54:39;24.20;99.90
61004;DHT22;46889;37.310;13.582;2022-10-17T07:57:05;24.30;99.90
61004;DHT22;46889;37.310;13.582;2022-10-17T07:59:43;24.60;99.90
61004;DHT22;46889;37.310;13.582;2022-10-17T08:02:20;24.80;99.90
61004;DHT22;46889;37.310;13.582;2022-10-17T08:04:46;25.00;99.90
61004;DHT22;46889;37.310;13.582;2022-10-17T08:07:12;25.00;99.90
61004;DHT22;46889;37.310;13.582;2022-10-17T08:09:41;24.90;99.90
61004;DHT22;46889;37.310;13.582;2022-10-17T08:12:07;24.70;99.90
61004;DHT22;46889;37.310;13.582;2022-10-17T08:14:33;24.60;99.90
61004;DHT22;46889;37.310;13.582;2022-10-17T08:16:59;24.90;99.90
61004;DHT22;46889;37.310;13.582;2022-10-17T08:19:26;25.20;99.90
61004;DHT22;46889;37.310;13.582;2022-10-17T08:21:53;24.80;99.90
61004;DHT22;46889;37.310;13.582;2022-10-17T08:24:19;24.90;99.90
61004;DHT22;46889;37.310;13.582;2022-10-17T08:26:45;25.00;99.90
61004;DHT22;46889;37.310;13.582;2022-10-17T08:29:14;25.20;99.90
61004;DHT22;46889;37.310;13.582;2022-10-17T08:31:41;25.50;99.90
61004;DHT22;46889;37.310;13.582;2022-10-17T08:34:07;25.70;99.90
61004;DHT22;46889;37.310;13.582;2022-10-17T08:36:33;25.70;99.90
61004;DHT22;46889;37.310;13.582;2022-10-17T08:38:59;25.40;99.90
61004;DHT22;46889;37.310;13.582;2022-10-17T08:47:38;25.10;99.90
61004;DHT22;46889;37.310;13.582;2022-10-17T08:55:44;25.20;99.90
61004;DHT22;46889;37.310;13.582;2022-10-17T08:58:21;25.50;99.90
61004;DHT22;46889;37.310;13.582;2022-10-17T09:01:09;25.80;99.90
61004;DHT22;46889;37.310;13.582;2022-10-17T09:03:50;26.20;99.90
61004;DHT22;46889;37.310;13.582;2022-10-17T09:06:39;26.40;99.90
61004;DHT22;46889;37.310;13.582;2022-10-17T09:09:14;26.80;99.90
61004;DHT22;46889;37.310;13.582;2022-10-17T09:15:19;27.10;99.90
61004;DHT22;46889;37.310;13.582;2022-10-17T09:20:46;27.60;99.90
61004;DHT22;46889;37.310;13.582;2022-10-17T09:23:24;27.70;99.90
61004;DHT22;46889;37.310;13.582;2022-10-17T09:25:54;27.40;99.90
61004;DHT22;46889;37.310;13.582;2022-10-17T09:28:35;27.50;99.90
61004;DHT22;46889;37.310;13.582;2022-10-17T09:33:44;27.20;99.90
61004;DHT22;46889;37.310;13.582;2022-10-17T09:36:15;27.30;99.90
61004;DHT22;46889;37.310;13.582;2022-10-17T09:38:49;27.40;99.90
61004;DHT22;46889;37.310;13.582;2022-10-17T09:41:18;27.70;99.90
61004;DHT22;46889;37.310;13.582;2022-10-17T09:43:45;27.80;99.90
61004;DHT22;46889;37.310;13.582;2022-10-17T09:46:28;27.60;99.90
61004;DHT22;46889;37.310;13.582;2022-10-17T09:49:17;27.40;99.90
61004;DHT22;46889;37.310;13.582;2022-10-17T09:51:52;27.20;99.90
61004;DHT22;46889;37.310;13.582;2022-10-17T09:54:27;27.30;99.90
61004;DHT22;46889;37.310;13.582;2022-10-17T09:57:06;27.50;99.90
61004;DHT22;46889;37.310;13.582;2022-10-17T09:59:42;27.30;99.90
61004;DHT22;46889;37.310;13.582;2022-10-17T10:05:16;27.00;99.90
61004;DHT22;46889;37.310;13.582;2022-10-17T10:07:45;26.90;99.90
61004;DHT22;46889;37.310;13.582;2022-10-17T10:10:26;26.50;99.90
61004;DHT22;46889;37.310;13.582;2022-10-17T10:13:16;26.70;99.90
61004;DHT22;46889;37.310;13.582;2022-10-17T10:15:46;26.80;99.90
61004;DHT22;46889;37.310;13.582;2022-10-17T10:18:28;27.00;99.90
61004;DHT22;46889;37.310;13.582;2022-10-17T10:23:35;26.90;99.90
61004;DHT22;46889;37.310;13.582;2022-10-17T10:26:26;26.90;99.90
61004;DHT22;46889;37.310;13.582;2022-10-17T10:28:56;27.20;99.90
61004;DHT22;46889;37.310;13.582;2022-10-17T10:31:30;27.10;99.90
61004;DHT22;46889;37.310;13.582;2022-10-17T10:33:59;27.30;99.90
61004;DHT22;46889;37.310;13.582;2022-10-17T10:36:46;27.50;99.90
61004;DHT22;46889;37.310;13.582;2022-10-17T10:42:05;27.10;99.90
61004;DHT22;46889;37.310;13.582;2022-10-17T10:44:33;27.30;99.90
61004;DHT22;46889;37.310;13.582;2022-10-17T10:49:40;27.10;99.90
61004;DHT22;46889;37.310;13.582;2022-10-17T10:52:09;27.00;99.90
61004;DHT22;46889;37.310;13.582;2022-10-17T10:54:45;27.00;99.90
61004;DHT22;46889;37.310;13.582;2022-10-17T10:57:20;27.00;99.90
61004;DHT22;46889;37.310;13.582;2022-10-17T11:05:51;27.20;99.90
61004;DHT22;46889;37.310;13.582;2022-10-17T11:08:33;26.90;99.90
61004;DHT22;46889;37.310;13.582;2022-10-17T11:14:23;27.30;99.90
61004;DHT22;46889;37.310;13.582;2022-10-17T11:17:02;27.30;99.90
61004;DHT22;46889;37.310;13.582;2022-10-17T11:22:33;27.40;99.90
61004;DHT22;46889;37.310;13.582;2022-10-17T11:25:34;27.40;99.90
61004;DHT22;46889;37.310;13.582;2022-10-17T11:28:12;27.20;99.90
61004;DHT22;46889;37.310;13.582;2022-10-17T11:33:14;27.00;99.90
61004;DHT22;46889;37.310;13.582;2022-10-17T11:35:44;27.10;99.90
61004;DHT22;46889;37.310;13.582;2022-10-17T11:38:39;27.10;99.90
61004;DHT22;46889;37.310;13.582;2022-10-17T11:41:12;27.20;99.90
61004;DHT22;46889;37.310;13.582;2022-10-17T11:43:55;27.20;99.90
61004;DHT22;46889;37.310;13.582;2022-10-17T11:46:24;27.30;99.90
61004;DHT22;46889;37.310;13.582;2022-10-17T11:49:12;27.30;99.90
61004;DHT22;46889;37.310;13.582;2022-10-17T11:51:59;27.10;99.90
61004;DHT22;46889;37.310;13.582;2022-10-17T11:54:47;26.90;99.90
61004;DHT22;46889;37.310;13.582;2022-10-17T11:57:29;26.90;99.90
61004;DHT22;46889;37.310;13.582;2022-10-17T12:02:41;27.10;99.90
61004;DHT22;46889;37.310;13.582;2022-10-17T12:08:34;27.10;99.90
61004;DHT22;46889;37.310;13.582;2022-10-17T12:30:06;26.80;99.90
61004;DHT22;46889;37.310;13.582;2022-10-17T12:32:54;26.60;99.90
61004;DHT22;46889;37.310;13.582;2022-10-17T12:35:23;26.60;99.90
61004;DHT22;46889;37.310;13.582;2022-10-17T12:37:59;26.60;99.90
61004;DHT22;46889;37.310;13.582;2022-10-17T12:51:12;26.80;99.90
61004;DHT22;46889;37.310;13.582;2022-10-17T12:53:57;26.70;99.90
61004;DHT22;46889;37.310;13.582;2022-10-17T12:56:40;26.40;99.90
61004;DHT22;46889;37.310;13.582;2022-10-17T12:59:14;26.50;99.90
61004;DHT22;46889;37.310;13.582;2022-10-17T13:01:45;26.70;99.90
61004;DHT22;46889;37.310;13.582;2022-10-17T13:04:12;26.70;99.90
61004;DHT22;46889;37.310;13.582;2022-10-17T13:06:42;26.80;99.90
61004;DHT22;46889;37.310;13.582;2022-10-17T13:09:32;26.80;99.90
61004;DHT22;46889;37.310;13.582;2022-10-17T13:12:02;26.80;99.90
61004;DHT22;46889;37.310;13.582;2022-10-17T13:14:30;26.80;99.90
61004;DHT22;46889;37.310;13.582;2022-10-17T13:17:01;26.60;99.90
61004;DHT22;46889;37.310;13.582;2022-10-17T13:19:40;26.50;99.90
61004;DHT22;46889;37.310;13.582;2022-10-17T13:22:22;26.40;99.90
61004;DHT22;46889;37.310;13.582;2022-10-17T13:24:50;26.40;99.90
61004;DHT22;46889;37.310;13.582;2022-10-17T13:27:29;26.40;99.90
61004;DHT22;46889;37.310;13.582;2022-10-17T13:29:59;26.30;99.90
61004;DHT22;46889;37.310;13.582;2022-10-17T13:32:33;26.40;99.90
61004;DHT22;46889;37.310;13.582;2022-10-17T13:35:13;26.30;99.90
61004;DHT22;46889;37.310;13.582;2022-10-17T13:37:42;26.50;99.90
61004;DHT22;46889;37.310;13.582;2022-10-17T13:40:41;26.50;99.90
61004;DHT22;46889;37.310;13.582;2022-10-17T13:43:17;26.30;99.90
61004;DHT22;46889;37.310;13.582;2022-10-17T13:46:00;26.20;99.90
61004;DHT22;46889;37.310;13.582;2022-10-17T13:48:45;26.20;99.90
61004;DHT22;46889;37.310;13.582;2022-10-17T13:51:12;26.00;99.90
61004;DHT22;46889;37.310;13.582;2022-10-17T13:53:39;26.00;99.90
61004;DHT22;46889;37.310;13.582;2022-10-17T13:56:20;26.00;99.90
61004;DHT22;46889;37.310;13.582;2022-10-17T13:58:48;26.00;99.90
61004;DHT22;46889;37.310;13.582;2022-10-17T14:01:15;26.00;99.90
61004;DHT22;46889;37.310;13.582;2022-10-17T14:03:49;26.10;99.90
61004;DHT22;46889;37.310;13.582;2022-10-17T14:06:23;26.20;99.90
61004;DHT22;46889;37.310;13.582;2022-10-17T14:09:15;26.00;99.90
61004;DHT22;46889;37.310;13.582;2022-10-17T14:11:43;26.00;99.90
61004;DHT22;46889;37.310;13.582;2022-10-17T14:14:36;25.80;99.90
61004;DHT22;46889;37.310;13.582;2022-10-17T14:17:25;26.00;99.90
61004;DHT22;46889;37.310;13.582;2022-10-17T14:19:58;26.10;99.90
61004;DHT22;46889;37.310;13.582;2022-10-17T14:22:32;26.10;99.90
61004;DHT22;46889;37.310;13.582;2022-10-17T14:24:59;26.00;99.90
61004;DHT22;46889;37.310;13.582;2022-10-17T14:27:27;25.90;99.90
61004;DHT22;46889;37.310;13.582;2022-10-17T14:29:55;25.80;99.90
61004;DHT22;46889;37.310;13.582;2022-10-17T14:32:26;25.70;99.90
61004;DHT22;46889;37.310;13.582;2022-10-17T14:35:15;25.60;99.90
61004;DHT22;46889;37.310;13.582;2022-10-17T14:37:46;25.70;99.90
61004;DHT22;46889;37.310;13.582;2022-10-17T14:40:17;26.00;99.90
61004;DHT22;46889;37.310;13.582;2022-10-17T14:42:45;26.00;99.90
61004;DHT22;46889;37.310;13.582;2022-10-17T14:45:14;26.10;99.90
61004;DHT22;46889;37.310;13.582;2022-10-17T14:47:48;26.00;99.90
61004;DHT22;46889;37.310;13.582;2022-10-17T14:52:41;25.70;99.90
61004;DHT22;46889;37.310;13.582;2022-10-17T14:55:25;25.60;99.90
61004;DHT22;46889;37.310;13.582;2022-10-17T14:57:51;25.40;99.90
61004;DHT22;46889;37.310;13.582;2022-10-17T15:00:19;25.40;99.90
61004;DHT22;46889;37.310;13.582;2022-10-17T15:02:49;25.50;99.90
61004;DHT22;46889;37.310;13.582;2022-10-17T15:05:16;25.40;99.90
61004;DHT22;46889;37.310;13.582;2022-10-17T15:07:43;25.40;99.90
61004;DHT22;46889;37.310;13.582;2022-10-17T15:10:23;25.40;99.90
61004;DHT22;46889;37.310;13.582;2022-10-17T15:12:50;25.30;99.90
61004;DHT22;46889;37.310;13.582;2022-10-17T15:15:18;25.30;99.90
61004;DHT22;46889;37.310;13.582;2022-10-17T15:17:47;25.10;99.90
61004;DHT22;46889;37.310;13.582;2022-10-17T15:20:16;25.10;99.90
61004;DHT22;46889;37.310;13.582;2022-10-17T15:22:42;25.10;99.90
61004;DHT22;46889;37.310;13.582;2022-10-17T15:25:08;24.80;99.90
61004;DHT22;46889;37.310;13.582;2022-10-17T15:27:35;24.80;99.90
61004;DHT22;46889;37.310;13.582;2022-10-17T15:30:01;24.80;99.90
61004;DHT22;46889;37.310;13.582;2022-10-17T15:32:27;24.80;99.90
61004;DHT22;46889;37.310;13.582;2022-10-17T15:34:53;24.60;99.90
61004;DHT22;46889;37.310;13.582;2022-10-17T15:37:22;24.40;99.90
61004;DHT22;46889;37.310;13.582;2022-10-17T15:39:53;24.30;99.90
61004;DHT22;46889;37.310;13.582;2022-10-17T15:42:21;24.30;99.90
61004;DHT22;46889;37.310;13.582;2022-10-17T15:44:48;24.20;99.90
61004;DHT22;46889;37.310;13.582;2022-10-17T15:47:27;24.20;99.90
61004;DHT22;46889;37.310;13.582;2022-10-17T15:49:53;24.20;99.90
61004;DHT22;46889;37.310;13.582;2022-10-17T15:52:21;24.10;99.90
61004;DHT22;46889;37.310;13.582;2022-10-17T15:54:47;23.90;99.90
61004;DHT22;46889;37.310;13.582;2022-10-17T15:57:23;23.80;99.90
61004;DHT22;46889;37.310;13.582;2022-10-17T15:59:54;23.80;99.90
61004;DHT22;46889;37.310;13.582;2022-10-17T16:02:23;23.80;99.90
61004;DHT22;46889;37.310;13.582;2022-10-17T16:04:50;23.60;99.90
61004;DHT22;46889;37.310;13.582;2022-10-17T16:07:17;23.60;99.90
61004;DHT22;46889;37.310;13.582;2022-10-17T16:09:44;23.50;99.90
61004;DHT22;46889;37.310;13.582;2022-10-17T16:12:17;23.40;99.90
61004;DHT22;46889;37.310;13.582;2022-10-17T16:14:44;23.40;99.90
61004;DHT22;46889;37.310;13.582;2022-10-17T16:17:14;23.30;99.90
61004;DHT22;46889;37.310;13.582;2022-10-17T16:19:46;23.20;99.90
61004;DHT22;46889;37.310;13.582;2022-10-17T16:22:39;23.20;99.90
61004;DHT22;46889;37.310;13.582;2022-10-17T16:25:16;23.00;99.90
61004;DHT22;46889;37.310;13.582;2022-10-17T16:27:45;22.90;99.90
61004;DHT22;46889;37.310;13.582;2022-10-17T16:30:12;22.80;99.90
61004;DHT22;46889;37.310;13.582;2022-10-17T16:32:38;22.80;99.90
61004;DHT22;46889;37.310;13.582;2022-10-17T16:35:05;22.80;99.90
61004;DHT22;46889;37.310;13.582;2022-10-17T16:37:32;22.70;99.90
61004;DHT22;46889;37.310;13.582;2022-10-17T16:39:58;22.70;99.90
61004;DHT22;46889;37.310;13.582;2022-10-17T16:42:25;22.70;99.90
61004;DHT22;46889;37.310;13.582;2022-10-17T16:44:51;22.60;99.90
61004;DHT22;46889;37.310;13.582;2022-10-17T16:47:18;22.60;99.90
61004;DHT22;46889;37.310;13.582;2022-10-17T16:49:44;22.60;99.90
61004;DHT22;46889;37.310;13.582;2022-10-17T16:52:11;22.40;99.90
61004;DHT22;46889;37.310;13.582;2022-10-17T16:54:38;22.40;99.90
61004;DHT22;46889;37.310;13.582;2022-10-17T16:57:04;22.30;99.90
61004;DHT22;46889;37.310;13.582;2022-10-17T16:59:30;22.30;99.90
61004;DHT22;46889;37.310;13.582;2022-10-17T17:01:57;22.40;99.90
61004;DHT22;46889;37.310;13.582;2022-10-17T17:04:23;22.40;99.90
61004;DHT22;46889;37.310;13.582;2022-10-17T17:06:50;22.40;99.90
61004;DHT22;46889;37.310;13.582;2022-10-17T17:09:18;22.30;99.90
61004;DHT22;46889;37.310;13.582;2022-10-17T17:11:45;22.40;99.90
61004;DHT22;46889;37.310;13.582;2022-10-17T17:14:12;22.40;99.90
61004;DHT22;46889;37.310;13.582;2022-10-17T17:16:38;22.30;99.90
61004;DHT22;46889;37.310;13.582;2022-10-17T17:19:07;22.30;99.90
61004;DHT22;46889;37.310;13.582;2022-10-17T17:21:35;22.30;99.90
61004;DHT22;46889;37.310;13.582;2022-10-17T17:24:02;22.20;99.90
61004;DHT22;46889;37.310;13.582;2022-10-17T17:26:31;22.30;99.90
61004;DHT22;46889;37.310;13.582;2022-10-17T17:28:59;22.30;99.90
61004;DHT22;46889;37.310;13.582;2022-10-17T17:31:27;22.20;99.90
61004;DHT22;46889;37.310;13.582;2022-10-17T17:33:54;22.20;99.90
61004;DHT22;46889;37.310;13.582;2022-10-17T17:36:23;22.20;99.90